Aviation Digital Data Service (ADDS)

Output produced by METARs form (0741 UTC 24 October 2017)
found at http://www.aviationweather.gov/adds/metars/
 
METAR text: KSUS 240654Z AUTO 29013G22KT 10SM BKN080 OVC110 12/01 A2985 RMK AO2 PK WND 29030/0623 SLP106 T01170011
Conditions at: KSUS (ST. LOUIS/SPIRIT, MO, US) observed 0654 UTC 24 October 2017
Temperature: 11.7°C (53°F)
Dewpoint: 1.1°C (34°F) [RH = 48%]
Pressure (altimeter): 29.85 inches Hg (1010.9 mb)
[Sea-level pressure: 1010.6 mb]
Winds: from the WNW (290 degrees) at 15 MPH (13 knots; 6.8 m/s)
gusting to 25 MPH (22 knots; 11.4 m/s)
Visibility: 10 or more miles (16+ km)
Ceiling: 8000 feet AGL
Clouds: broken clouds at 8000 feet AGL
overcast cloud deck at 11000 feet AGL
Weather: automated observation with no human augmentation;
there may or may not be significant weather present at this time